sensor_id;sensor_type;location;lat;lon;timestamp;P1;durP1;ratioP1;P2;durP2;ratioP2
49556;SDS011;35462;45.048;7.666;2023-03-03T00:15:28;12.95;;;9.13;;
49556;SDS011;35462;45.048;7.666;2023-03-03T00:30:45;12.50;;;7.80;;
49556;SDS011;35462;45.048;7.666;2023-03-03T00:46:01;11.48;;;8.15;;
49556;SDS011;35462;45.048;7.666;2023-03-03T01:01:17;11.93;;;8.48;;
49556;SDS011;35462;45.048;7.666;2023-03-03T01:16:37;13.60;;;7.80;;
49556;SDS011;35462;45.048;7.666;2023-03-03T01:31:52;12.98;;;9.55;;
49556;SDS011;35462;45.048;7.666;2023-03-03T01:47:10;11.48;;;8.98;;
49556;SDS011;35462;45.048;7.666;2023-03-03T02:02:30;11.75;;;8.23;;
49556;SDS011;35462;45.048;7.666;2023-03-03T02:17:47;11.23;;;8.35;;
49556;SDS011;35462;45.048;7.666;2023-03-03T02:33:06;11.07;;;7.70;;
49556;SDS011;35462;45.048;7.666;2023-03-03T02:48:22;12.52;;;9.25;;
49556;SDS011;35462;45.048;7.666;2023-03-03T03:03:37;10.15;;;7.65;;
49556;SDS011;35462;45.048;7.666;2023-03-03T03:18:55;13.52;;;7.50;;
49556;SDS011;35462;45.048;7.666;2023-03-03T03:34:11;12.38;;;7.47;;
49556;SDS011;35462;45.048;7.666;2023-03-03T03:49:27;10.95;;;8.23;;
49556;SDS011;35462;45.048;7.666;2023-03-03T04:04:45;11.93;;;8.45;;
49556;SDS011;35462;45.048;7.666;2023-03-03T04:20:02;13.10;;;7.70;;
49556;SDS011;35462;45.048;7.666;2023-03-03T04:35:19;12.57;;;7.75;;
49556;SDS011;35462;45.048;7.666;2023-03-03T04:50:35;11.05;;;6.63;;
49556;SDS011;35462;45.048;7.666;2023-03-03T05:05:53;8.27;;;4.88;;
49556;SDS011;35462;45.048;7.666;2023-03-03T05:21:09;8.52;;;5.65;;
49556;SDS011;35462;45.048;7.666;2023-03-03T05:36:25;11.82;;;6.05;;
49556;SDS011;35462;45.048;7.666;2023-03-03T05:51:40;12.07;;;8.77;;
49556;SDS011;35462;45.048;7.666;2023-03-03T06:06:56;14.18;;;10.90;;
49556;SDS011;35462;45.048;7.666;2023-03-03T06:22:12;21.15;;;11.55;;
49556;SDS011;35462;45.048;7.666;2023-03-03T06:37:28;18.52;;;10.88;;
49556;SDS011;35462;45.048;7.666;2023-03-03T06:52:44;18.25;;;10.25;;
49556;SDS011;35462;45.048;7.666;2023-03-03T07:08:00;16.48;;;9.70;;
49556;SDS011;35462;45.048;7.666;2023-03-03T07:23:20;13.50;;;9.75;;
49556;SDS011;35462;45.048;7.666;2023-03-03T07:38:40;15.70;;;12.60;;
49556;SDS011;35462;45.048;7.666;2023-03-03T08:09:46;15.38;;;9.93;;
49556;SDS011;35462;45.048;7.666;2023-03-03T08:25:05;11.85;;;9.23;;
49556;SDS011;35462;45.048;7.666;2023-03-03T08:40:21;15.27;;;9.38;;
49556;SDS011;35462;45.048;7.666;2023-03-03T08:55:38;14.18;;;9.45;;
49556;SDS011;35462;45.048;7.666;2023-03-03T09:10:54;17.27;;;10.00;;
49556;SDS011;35462;45.048;7.666;2023-03-03T09:56:52;14.13;;;9.32;;
49556;SDS011;35462;45.048;7.666;2023-03-03T10:12:24;13.50;;;9.23;;
49556;SDS011;35462;45.048;7.666;2023-03-03T10:43:10;9.55;;;5.93;;
49556;SDS011;35462;45.048;7.666;2023-03-03T10:58:48;13.07;;;5.32;;
49556;SDS011;35462;45.048;7.666;2023-03-03T11:30:07;6.00;;;4.37;;
49556;SDS011;35462;45.048;7.666;2023-03-03T11:45:46;6.20;;;4.63;;
49556;SDS011;35462;45.048;7.666;2023-03-03T12:16:55;6.53;;;3.70;;
49556;SDS011;35462;45.048;7.666;2023-03-03T12:47:49;6.30;;;3.70;;
49556;SDS011;35462;45.048;7.666;2023-03-03T13:34:19;6.38;;;3.58;;
49556;SDS011;35462;45.048;7.666;2023-03-03T13:49:50;11.23;;;4.20;;
49556;SDS011;35462;45.048;7.666;2023-03-03T14:05:16;5.88;;;3.53;;
49556;SDS011;35462;45.048;7.666;2023-03-03T14:20:52;7.43;;;3.70;;
49556;SDS011;35462;45.048;7.666;2023-03-03T14:36:10;5.82;;;3.60;;
49556;SDS011;35462;45.048;7.666;2023-03-03T15:07:14;4.68;;;3.20;;
49556;SDS011;35462;45.048;7.666;2023-03-03T15:22:45;4.38;;;3.40;;
49556;SDS011;35462;45.048;7.666;2023-03-03T16:40:31;7.95;;;3.40;;
49556;SDS011;35462;45.048;7.666;2023-03-03T16:55:59;7.57;;;3.65;;
49556;SDS011;35462;45.048;7.666;2023-03-03T17:26:52;7.38;;;4.07;;
49556;SDS011;35462;45.048;7.666;2023-03-03T18:44:29;19.35;;;6.50;;
49556;SDS011;35462;45.048;7.666;2023-03-03T18:59:48;14.50;;;9.68;;
49556;SDS011;35462;45.048;7.666;2023-03-03T19:30:52;17.10;;;6.90;;
49556;SDS011;35462;45.048;7.666;2023-03-03T19:46:20;20.27;;;8.35;;
49556;SDS011;35462;45.048;7.666;2023-03-03T20:01:49;16.55;;;7.97;;
49556;SDS011;35462;45.048;7.666;2023-03-03T21:04:21;17.55;;;11.52;;
49556;SDS011;35462;45.048;7.666;2023-03-03T21:19:43;15.20;;;10.27;;
49556;SDS011;35462;45.048;7.666;2023-03-03T21:35:03;17.48;;;10.77;;
49556;SDS011;35462;45.048;7.666;2023-03-03T21:50:21;20.10;;;11.68;;
49556;SDS011;35462;45.048;7.666;2023-03-03T22:05:36;19.40;;;11.85;;
49556;SDS011;35462;45.048;7.666;2023-03-03T22:20:52;15.38;;;10.50;;
49556;SDS011;35462;45.048;7.666;2023-03-03T22:36:08;17.63;;;10.77;;
49556;SDS011;35462;45.048;7.666;2023-03-03T22:51:24;18.58;;;12.02;;
49556;SDS011;35462;45.048;7.666;2023-03-03T23:06:40;17.10;;;11.40;;
49556;SDS011;35462;45.048;7.666;2023-03-03T23:21:58;17.17;;;12.15;;
49556;SDS011;35462;45.048;7.666;2023-03-03T23:37:13;19.67;;;12.73;;
49556;SDS011;35462;45.048;7.666;2023-03-03T23:52:29;15.48;;;11.15;;
